sensor_id;sensor_type;location;lat;lon;timestamp;P1;durP1;ratioP1;P2;durP2;ratioP2
82409;SDS011;72049;51.766;6.846;2024-02-26T00:01:58;1.92;;;1.20;;
82409;SDS011;72049;51.766;6.846;2024-02-26T00:04:23;1.43;;;1.33;;
82409;SDS011;72049;51.766;6.846;2024-02-26T00:06:48;5.57;;;1.75;;
82409;SDS011;72049;51.766;6.846;2024-02-26T00:09:16;2.00;;;1.15;;
82409;SDS011;72049;51.766;6.846;2024-02-26T00:11:42;2.28;;;1.38;;
82409;SDS011;72049;51.766;6.846;2024-02-26T00:14:07;2.20;;;1.42;;
82409;SDS011;72049;51.766;6.846;2024-02-26T00:16:32;2.65;;;1.23;;
82409;SDS011;72049;51.766;6.846;2024-02-26T00:18:58;2.03;;;0.95;;
82409;SDS011;72049;51.766;6.846;2024-02-26T00:21:23;1.80;;;1.23;;
82409;SDS011;72049;51.766;6.846;2024-02-26T00:23:49;2.33;;;1.37;;
82409;SDS011;72049;51.766;6.846;2024-02-26T00:26:14;2.85;;;1.75;;
82409;SDS011;72049;51.766;6.846;2024-02-26T00:28:40;1.27;;;0.80;;
82409;SDS011;72049;51.766;6.846;2024-02-26T00:31:05;1.17;;;0.70;;
82409;SDS011;72049;51.766;6.846;2024-02-26T00:33:31;2.90;;;1.27;;
82409;SDS011;72049;51.766;6.846;2024-02-26T00:35:56;2.30;;;0.97;;
82409;SDS011;72049;51.766;6.846;2024-02-26T00:38:21;1.83;;;1.13;;
82409;SDS011;72049;51.766;6.846;2024-02-26T00:40:46;1.73;;;1.10;;
82409;SDS011;72049;51.766;6.846;2024-02-26T00:43:12;3.03;;;1.47;;
82409;SDS011;72049;51.766;6.846;2024-02-26T00:45:37;2.28;;;1.40;;
82409;SDS011;72049;51.766;6.846;2024-02-26T00:48:02;1.00;;;0.90;;
82409;SDS011;72049;51.766;6.846;2024-02-26T00:50:32;2.22;;;1.05;;
82409;SDS011;72049;51.766;6.846;2024-02-26T00:52:58;3.25;;;1.25;;
82409;SDS011;72049;51.766;6.846;2024-02-26T00:55:24;1.83;;;1.17;;
82409;SDS011;72049;51.766;6.846;2024-02-26T00:57:49;2.20;;;1.30;;
82409;SDS011;72049;51.766;6.846;2024-02-26T01:00:14;1.90;;;1.03;;
82409;SDS011;72049;51.766;6.846;2024-02-26T01:02:40;2.75;;;1.42;;
82409;SDS011;72049;51.766;6.846;2024-02-26T01:05:07;1.85;;;1.10;;
82409;SDS011;72049;51.766;6.846;2024-02-26T01:07:32;1.77;;;0.95;;
82409;SDS011;72049;51.766;6.846;2024-02-26T01:10:01;1.38;;;0.85;;
82409;SDS011;72049;51.766;6.846;2024-02-26T01:12:26;2.40;;;1.20;;
82409;SDS011;72049;51.766;6.846;2024-02-26T01:14:51;2.57;;;1.30;;
82409;SDS011;72049;51.766;6.846;2024-02-26T01:17:17;2.30;;;1.40;;
82409;SDS011;72049;51.766;6.846;2024-02-26T01:19:42;1.33;;;0.98;;
82409;SDS011;72049;51.766;6.846;2024-02-26T01:22:08;1.03;;;0.70;;
82409;SDS011;72049;51.766;6.846;2024-02-26T01:24:33;2.90;;;1.40;;
82409;SDS011;72049;51.766;6.846;2024-02-26T01:26:58;2.80;;;1.47;;
82409;SDS011;72049;51.766;6.846;2024-02-26T01:29:23;1.93;;;1.10;;
82409;SDS011;72049;51.766;6.846;2024-02-26T01:31:49;1.53;;;1.07;;
82409;SDS011;72049;51.766;6.846;2024-02-26T01:34:14;1.47;;;0.90;;
82409;SDS011;72049;51.766;6.846;2024-02-26T01:36:39;5.63;;;1.48;;
82409;SDS011;72049;51.766;6.846;2024-02-26T01:39:05;2.25;;;1.00;;
82409;SDS011;72049;51.766;6.846;2024-02-26T01:41:31;1.83;;;1.25;;
82409;SDS011;72049;51.766;6.846;2024-02-26T01:43:56;2.37;;;1.00;;
82409;SDS011;72049;51.766;6.846;2024-02-26T01:46:21;1.60;;;1.20;;
82409;SDS011;72049;51.766;6.846;2024-02-26T01:48:47;2.50;;;1.40;;
82409;SDS011;72049;51.766;6.846;2024-02-26T01:51:12;1.60;;;1.05;;
82409;SDS011;72049;51.766;6.846;2024-02-26T01:53:39;2.50;;;1.10;;
82409;SDS011;72049;51.766;6.846;2024-02-26T01:56:05;1.85;;;1.45;;
82409;SDS011;72049;51.766;6.846;2024-02-26T01:58:30;3.33;;;1.00;;
82409;SDS011;72049;51.766;6.846;2024-02-26T02:00:56;2.85;;;1.15;;
82409;SDS011;72049;51.766;6.846;2024-02-26T02:03:22;1.85;;;1.17;;
82409;SDS011;72049;51.766;6.846;2024-02-26T02:05:47;2.85;;;1.35;;
82409;SDS011;72049;51.766;6.846;2024-02-26T02:08:12;2.15;;;0.95;;
82409;SDS011;72049;51.766;6.846;2024-02-26T02:10:38;2.10;;;1.20;;
82409;SDS011;72049;51.766;6.846;2024-02-26T02:13:03;1.70;;;1.08;;
82409;SDS011;72049;51.766;6.846;2024-02-26T02:15:29;2.38;;;1.48;;
82409;SDS011;72049;51.766;6.846;2024-02-26T02:17:54;4.05;;;1.20;;
82409;SDS011;72049;51.766;6.846;2024-02-26T02:20:24;2.63;;;1.33;;
82409;SDS011;72049;51.766;6.846;2024-02-26T02:22:49;3.75;;;1.65;;
82409;SDS011;72049;51.766;6.846;2024-02-26T02:25:15;2.33;;;1.30;;
82409;SDS011;72049;51.766;6.846;2024-02-26T02:27:40;5.93;;;1.52;;
82409;SDS011;72049;51.766;6.846;2024-02-26T02:30:07;2.58;;;1.38;;
82409;SDS011;72049;51.766;6.846;2024-02-26T02:32:33;2.10;;;1.17;;
82409;SDS011;72049;51.766;6.846;2024-02-26T02:34:58;1.67;;;0.95;;
82409;SDS011;72049;51.766;6.846;2024-02-26T02:37:23;1.60;;;1.23;;
82409;SDS011;72049;51.766;6.846;2024-02-26T02:39:49;2.65;;;1.13;;
82409;SDS011;72049;51.766;6.846;2024-02-26T02:42:14;2.10;;;1.00;;
82409;SDS011;72049;51.766;6.846;2024-02-26T02:44:40;3.05;;;1.30;;
82409;SDS011;72049;51.766;6.846;2024-02-26T02:47:05;2.57;;;1.17;;
82409;SDS011;72049;51.766;6.846;2024-02-26T02:49:30;1.17;;;0.80;;
82409;SDS011;72049;51.766;6.846;2024-02-26T02:51:55;1.53;;;0.90;;
82409;SDS011;72049;51.766;6.846;2024-02-26T02:54:22;1.38;;;1.05;;
82409;SDS011;72049;51.766;6.846;2024-02-26T02:56:47;2.67;;;1.17;;
82409;SDS011;72049;51.766;6.846;2024-02-26T02:59:13;1.17;;;1.00;;
82409;SDS011;72049;51.766;6.846;2024-02-26T03:01:38;2.07;;;0.93;;
82409;SDS011;72049;51.766;6.846;2024-02-26T03:04:03;1.20;;;0.82;;
82409;SDS011;72049;51.766;6.846;2024-02-26T03:06:29;2.23;;;0.83;;
82409;SDS011;72049;51.766;6.846;2024-02-26T03:08:54;2.53;;;0.83;;
82409;SDS011;72049;51.766;6.846;2024-02-26T03:11:20;2.55;;;1.00;;
82409;SDS011;72049;51.766;6.846;2024-02-26T03:13:45;1.23;;;0.90;;
82409;SDS011;72049;51.766;6.846;2024-02-26T03:16:10;1.85;;;1.00;;
82409;SDS011;72049;51.766;6.846;2024-02-26T03:18:38;2.55;;;1.00;;
82409;SDS011;72049;51.766;6.846;2024-02-26T03:21:03;1.40;;;0.90;;
82409;SDS011;72049;51.766;6.846;2024-02-26T03:23:29;2.17;;;0.90;;
82409;SDS011;72049;51.766;6.846;2024-02-26T03:25:55;2.22;;;0.80;;
82409;SDS011;72049;51.766;6.846;2024-02-26T03:28:21;1.70;;;1.02;;
82409;SDS011;72049;51.766;6.846;2024-02-26T03:30:46;2.07;;;1.27;;
82409;SDS011;72049;51.766;6.846;2024-02-26T03:33:11;3.07;;;1.23;;
82409;SDS011;72049;51.766;6.846;2024-02-26T03:35:37;2.10;;;1.10;;
82409;SDS011;72049;51.766;6.846;2024-02-26T03:38:02;2.67;;;0.93;;
82409;SDS011;72049;51.766;6.846;2024-02-26T03:40:27;1.70;;;1.10;;
82409;SDS011;72049;51.766;6.846;2024-02-26T03:42:53;1.75;;;1.25;;
82409;SDS011;72049;51.766;6.846;2024-02-26T03:45:19;1.80;;;0.90;;
82409;SDS011;72049;51.766;6.846;2024-02-26T03:47:44;1.67;;;1.20;;
82409;SDS011;72049;51.766;6.846;2024-02-26T03:50:09;1.08;;;0.60;;
82409;SDS011;72049;51.766;6.846;2024-02-26T03:52:35;0.77;;;0.73;;
82409;SDS011;72049;51.766;6.846;2024-02-26T03:55:00;1.30;;;0.90;;
82409;SDS011;72049;51.766;6.846;2024-02-26T03:57:25;2.67;;;1.45;;
82409;SDS011;72049;51.766;6.846;2024-02-26T03:59:51;2.20;;;1.10;;
82409;SDS011;72049;51.766;6.846;2024-02-26T04:02:16;1.50;;;1.00;;
82409;SDS011;72049;51.766;6.846;2024-02-26T04:04:41;3.17;;;1.63;;
82409;SDS011;72049;51.766;6.846;2024-02-26T04:07:07;2.15;;;1.10;;
82409;SDS011;72049;51.766;6.846;2024-02-26T04:09:32;1.80;;;1.40;;
82409;SDS011;72049;51.766;6.846;2024-02-26T04:11:58;2.08;;;1.20;;
82409;SDS011;72049;51.766;6.846;2024-02-26T04:14:23;1.57;;;1.00;;
82409;SDS011;72049;51.766;6.846;2024-02-26T04:16:48;1.17;;;0.98;;
82409;SDS011;72049;51.766;6.846;2024-02-26T04:19:17;4.20;;;1.23;;
82409;SDS011;72049;51.766;6.846;2024-02-26T04:21:42;3.05;;;1.23;;
82409;SDS011;72049;51.766;6.846;2024-02-26T04:24:07;1.48;;;0.93;;
82409;SDS011;72049;51.766;6.846;2024-02-26T04:26:33;2.00;;;0.93;;
82409;SDS011;72049;51.766;6.846;2024-02-26T04:28:58;1.08;;;0.77;;
82409;SDS011;72049;51.766;6.846;2024-02-26T04:31:24;2.00;;;1.23;;
82409;SDS011;72049;51.766;6.846;2024-02-26T04:33:49;2.08;;;1.40;;
82409;SDS011;72049;51.766;6.846;2024-02-26T04:36:15;1.63;;;1.10;;
82409;SDS011;72049;51.766;6.846;2024-02-26T04:38:42;1.80;;;1.17;;
82409;SDS011;72049;51.766;6.846;2024-02-26T04:41:07;1.95;;;0.90;;
82409;SDS011;72049;51.766;6.846;2024-02-26T04:43:32;1.10;;;0.90;;
82409;SDS011;72049;51.766;6.846;2024-02-26T04:45:57;1.77;;;0.93;;
82409;SDS011;72049;51.766;6.846;2024-02-26T04:48:23;1.77;;;1.20;;
82409;SDS011;72049;51.766;6.846;2024-02-26T04:50:48;2.27;;;0.80;;
82409;SDS011;72049;51.766;6.846;2024-02-26T04:53:13;1.63;;;0.97;;
82409;SDS011;72049;51.766;6.846;2024-02-26T04:55:39;1.58;;;1.00;;
82409;SDS011;72049;51.766;6.846;2024-02-26T04:58:04;1.87;;;0.93;;
82409;SDS011;72049;51.766;6.846;2024-02-26T05:00:29;2.80;;;1.00;;
82409;SDS011;72049;51.766;6.846;2024-02-26T05:02:55;1.93;;;1.00;;
82409;SDS011;72049;51.766;6.846;2024-02-26T05:05:20;2.65;;;1.45;;
82409;SDS011;72049;51.766;6.846;2024-02-26T05:07:45;0.90;;;0.70;;
82409;SDS011;72049;51.766;6.846;2024-02-26T05:10:11;1.83;;;0.90;;
82409;SDS011;72049;51.766;6.846;2024-02-26T05:12:36;1.23;;;0.85;;
82409;SDS011;72049;51.766;6.846;2024-02-26T05:15:02;1.08;;;0.63;;
82409;SDS011;72049;51.766;6.846;2024-02-26T05:17:27;1.63;;;0.73;;
82409;SDS011;72049;51.766;6.846;2024-02-26T05:19:53;2.07;;;1.47;;
82409;SDS011;72049;51.766;6.846;2024-02-26T05:22:18;1.83;;;1.20;;
82409;SDS011;72049;51.766;6.846;2024-02-26T05:24:44;1.43;;;0.77;;
82409;SDS011;72049;51.766;6.846;2024-02-26T05:27:09;1.70;;;0.50;;
82409;SDS011;72049;51.766;6.846;2024-02-26T05:29:34;1.13;;;0.47;;
82409;SDS011;72049;51.766;6.846;2024-02-26T05:32:00;1.00;;;0.53;;
82409;SDS011;72049;51.766;6.846;2024-02-26T05:34:25;0.53;;;0.53;;
82409;SDS011;72049;51.766;6.846;2024-02-26T05:36:50;1.63;;;0.90;;
82409;SDS011;72049;51.766;6.846;2024-02-26T05:39:16;1.80;;;0.90;;
82409;SDS011;72049;51.766;6.846;2024-02-26T05:41:41;3.10;;;0.93;;
82409;SDS011;72049;51.766;6.846;2024-02-26T05:44:08;2.15;;;1.08;;
82409;SDS011;72049;51.766;6.846;2024-02-26T05:46:35;0.95;;;0.63;;
82409;SDS011;72049;51.766;6.846;2024-02-26T05:49:00;1.75;;;0.90;;
82409;SDS011;72049;51.766;6.846;2024-02-26T05:51:26;0.63;;;0.55;;
82409;SDS011;72049;51.766;6.846;2024-02-26T05:53:51;1.23;;;0.75;;
82409;SDS011;72049;51.766;6.846;2024-02-26T05:56:19;1.80;;;0.95;;
82409;SDS011;72049;51.766;6.846;2024-02-26T05:58:45;1.70;;;0.77;;
82409;SDS011;72049;51.766;6.846;2024-02-26T06:01:10;1.70;;;0.93;;
82409;SDS011;72049;51.766;6.846;2024-02-26T06:03:35;1.47;;;0.77;;
82409;SDS011;72049;51.766;6.846;2024-02-26T06:06:00;1.77;;;0.87;;
82409;SDS011;72049;51.766;6.846;2024-02-26T06:08:26;1.10;;;0.70;;
82409;SDS011;72049;51.766;6.846;2024-02-26T06:10:51;1.13;;;0.98;;
82409;SDS011;72049;51.766;6.846;2024-02-26T06:13:16;2.10;;;1.15;;
82409;SDS011;72049;51.766;6.846;2024-02-26T06:15:42;1.37;;;0.87;;
82409;SDS011;72049;51.766;6.846;2024-02-26T06:18:07;2.57;;;1.20;;
82409;SDS011;72049;51.766;6.846;2024-02-26T06:20:33;1.20;;;0.90;;
82409;SDS011;72049;51.766;6.846;2024-02-26T06:22:58;0.75;;;0.70;;
82409;SDS011;72049;51.766;6.846;2024-02-26T06:25:24;0.82;;;0.70;;
82409;SDS011;72049;51.766;6.846;2024-02-26T06:27:50;1.27;;;0.77;;
82409;SDS011;72049;51.766;6.846;2024-02-26T06:30:16;2.97;;;1.35;;
82409;SDS011;72049;51.766;6.846;2024-02-26T06:32:41;1.80;;;0.95;;
82409;SDS011;72049;51.766;6.846;2024-02-26T06:35:06;1.30;;;0.90;;
82409;SDS011;72049;51.766;6.846;2024-02-26T06:37:34;2.58;;;0.95;;
82409;SDS011;72049;51.766;6.846;2024-02-26T06:39:59;1.80;;;1.13;;
82409;SDS011;72049;51.766;6.846;2024-02-26T06:42:25;2.38;;;1.23;;
82409;SDS011;72049;51.766;6.846;2024-02-26T06:44:50;2.00;;;1.03;;
82409;SDS011;72049;51.766;6.846;2024-02-26T06:47:15;2.37;;;1.00;;
82409;SDS011;72049;51.766;6.846;2024-02-26T06:49:41;4.23;;;1.30;;
82409;SDS011;72049;51.766;6.846;2024-02-26T06:52:06;4.17;;;1.57;;
82409;SDS011;72049;51.766;6.846;2024-02-26T06:54:31;2.88;;;1.95;;
82409;SDS011;72049;51.766;6.846;2024-02-26T06:56:57;2.63;;;1.20;;
82409;SDS011;72049;51.766;6.846;2024-02-26T06:59:22;4.60;;;2.25;;
82409;SDS011;72049;51.766;6.846;2024-02-26T07:01:48;2.78;;;1.17;;
82409;SDS011;72049;51.766;6.846;2024-02-26T07:04:14;2.00;;;1.10;;
82409;SDS011;72049;51.766;6.846;2024-02-26T07:06:39;2.28;;;1.05;;
82409;SDS011;72049;51.766;6.846;2024-02-26T07:09:05;2.08;;;1.27;;
82409;SDS011;72049;51.766;6.846;2024-02-26T07:11:30;1.10;;;0.97;;
82409;SDS011;72049;51.766;6.846;2024-02-26T07:13:55;2.20;;;1.03;;
82409;SDS011;72049;51.766;6.846;2024-02-26T07:16:20;2.03;;;1.20;;
82409;SDS011;72049;51.766;6.846;2024-02-26T07:18:46;2.88;;;1.42;;
82409;SDS011;72049;51.766;6.846;2024-02-26T07:21:11;1.43;;;1.10;;
82409;SDS011;72049;51.766;6.846;2024-02-26T07:23:37;1.25;;;1.05;;
82409;SDS011;72049;51.766;6.846;2024-02-26T07:26:02;1.80;;;1.27;;
82409;SDS011;72049;51.766;6.846;2024-02-26T07:28:27;1.87;;;1.10;;
82409;SDS011;72049;51.766;6.846;2024-02-26T07:30:53;2.50;;;1.10;;
82409;SDS011;72049;51.766;6.846;2024-02-26T07:33:18;1.83;;;1.08;;
82409;SDS011;72049;51.766;6.846;2024-02-26T07:35:44;2.03;;;1.10;;
82409;SDS011;72049;51.766;6.846;2024-02-26T07:38:09;1.75;;;0.93;;
82409;SDS011;72049;51.766;6.846;2024-02-26T07:40:34;1.50;;;0.93;;
82409;SDS011;72049;51.766;6.846;2024-02-26T07:43:00;1.97;;;1.00;;
82409;SDS011;72049;51.766;6.846;2024-02-26T07:45:25;3.03;;;1.20;;
82409;SDS011;72049;51.766;6.846;2024-02-26T07:47:50;1.33;;;1.00;;
82409;SDS011;72049;51.766;6.846;2024-02-26T07:50:17;1.67;;;1.13;;
82409;SDS011;72049;51.766;6.846;2024-02-26T07:52:42;1.00;;;0.77;;
82409;SDS011;72049;51.766;6.846;2024-02-26T07:55:07;1.75;;;1.20;;
82409;SDS011;72049;51.766;6.846;2024-02-26T07:57:33;1.20;;;0.73;;
82409;SDS011;72049;51.766;6.846;2024-02-26T08:00:02;2.28;;;1.58;;
82409;SDS011;72049;51.766;6.846;2024-02-26T08:02:29;1.15;;;0.85;;
82409;SDS011;72049;51.766;6.846;2024-02-26T08:04:55;2.72;;;1.48;;
82409;SDS011;72049;51.766;6.846;2024-02-26T08:07:20;1.43;;;1.10;;
82409;SDS011;72049;51.766;6.846;2024-02-26T08:09:46;1.27;;;0.82;;
82409;SDS011;72049;51.766;6.846;2024-02-26T08:12:12;1.20;;;0.90;;
82409;SDS011;72049;51.766;6.846;2024-02-26T08:14:37;1.55;;;1.20;;
82409;SDS011;72049;51.766;6.846;2024-02-26T08:17:02;1.03;;;0.93;;
82409;SDS011;72049;51.766;6.846;2024-02-26T08:19:28;1.65;;;1.00;;
82409;SDS011;72049;51.766;6.846;2024-02-26T08:21:53;1.80;;;1.15;;
82409;SDS011;72049;51.766;6.846;2024-02-26T08:24:18;2.70;;;1.37;;
82409;SDS011;72049;51.766;6.846;2024-02-26T08:26:44;2.40;;;1.57;;
82409;SDS011;72049;51.766;6.846;2024-02-26T08:29:09;2.70;;;1.33;;
82409;SDS011;72049;51.766;6.846;2024-02-26T08:31:36;2.67;;;1.50;;
82409;SDS011;72049;51.766;6.846;2024-02-26T08:34:03;2.20;;;1.42;;
82409;SDS011;72049;51.766;6.846;2024-02-26T08:36:28;2.45;;;1.30;;
82409;SDS011;72049;51.766;6.846;2024-02-26T08:38:55;1.15;;;0.90;;
82409;SDS011;72049;51.766;6.846;2024-02-26T08:41:20;2.58;;;0.77;;
82409;SDS011;72049;51.766;6.846;2024-02-26T08:43:46;1.80;;;1.07;;
82409;SDS011;72049;51.766;6.846;2024-02-26T08:46:12;2.83;;;1.50;;
82409;SDS011;72049;51.766;6.846;2024-02-26T08:48:41;1.58;;;0.93;;
82409;SDS011;72049;51.766;6.846;2024-02-26T08:51:07;1.70;;;1.35;;
82409;SDS011;72049;51.766;6.846;2024-02-26T08:53:34;1.60;;;1.10;;
82409;SDS011;72049;51.766;6.846;2024-02-26T08:55:59;2.38;;;1.20;;
82409;SDS011;72049;51.766;6.846;2024-02-26T08:58:24;3.07;;;1.40;;
82409;SDS011;72049;51.766;6.846;2024-02-26T09:00:50;3.90;;;1.35;;
82409;SDS011;72049;51.766;6.846;2024-02-26T09:03:16;3.65;;;1.48;;
82409;SDS011;72049;51.766;6.846;2024-02-26T09:05:42;3.78;;;1.48;;
82409;SDS011;72049;51.766;6.846;2024-02-26T09:08:07;3.40;;;1.73;;
82409;SDS011;72049;51.766;6.846;2024-02-26T09:10:32;3.97;;;1.53;;
82409;SDS011;72049;51.766;6.846;2024-02-26T09:12:58;2.40;;;1.63;;
82409;SDS011;72049;51.766;6.846;2024-02-26T09:15:24;3.03;;;1.83;;
82409;SDS011;72049;51.766;6.846;2024-02-26T09:17:49;3.70;;;1.67;;
82409;SDS011;72049;51.766;6.846;2024-02-26T09:20:15;3.75;;;2.03;;
82409;SDS011;72049;51.766;6.846;2024-02-26T09:22:41;3.03;;;1.60;;
82409;SDS011;72049;51.766;6.846;2024-02-26T09:25:07;3.25;;;1.58;;
82409;SDS011;72049;51.766;6.846;2024-02-26T09:27:33;2.88;;;1.58;;
82409;SDS011;72049;51.766;6.846;2024-02-26T09:35:15;3.35;;;2.00;;
82409;SDS011;72049;51.766;6.846;2024-02-26T09:37:40;3.57;;;1.80;;
82409;SDS011;72049;51.766;6.846;2024-02-26T09:40:05;3.58;;;1.67;;
82409;SDS011;72049;51.766;6.846;2024-02-26T09:42:31;3.40;;;2.47;;
82409;SDS011;72049;51.766;6.846;2024-02-26T09:44:57;2.60;;;1.77;;
82409;SDS011;72049;51.766;6.846;2024-02-26T09:47:26;3.65;;;1.65;;
82409;SDS011;72049;51.766;6.846;2024-02-26T09:49:53;2.60;;;1.60;;
82409;SDS011;72049;51.766;6.846;2024-02-26T09:52:20;4.07;;;2.05;;
82409;SDS011;72049;51.766;6.846;2024-02-26T09:54:46;3.05;;;1.67;;
82409;SDS011;72049;51.766;6.846;2024-02-26T09:57:12;2.17;;;1.85;;
82409;SDS011;72049;51.766;6.846;2024-02-26T09:59:41;4.10;;;2.30;;
82409;SDS011;72049;51.766;6.846;2024-02-26T10:02:13;4.80;;;1.67;;
82409;SDS011;72049;51.766;6.846;2024-02-26T10:04:41;3.63;;;1.63;;
82409;SDS011;72049;51.766;6.846;2024-02-26T10:07:10;1.77;;;1.20;;
82409;SDS011;72049;51.766;6.846;2024-02-26T10:09:36;2.13;;;1.70;;
82409;SDS011;72049;51.766;6.846;2024-02-26T10:12:02;1.80;;;1.33;;
82409;SDS011;72049;51.766;6.846;2024-02-26T10:14:27;1.98;;;1.15;;
82409;SDS011;72049;51.766;6.846;2024-02-26T10:16:53;2.27;;;1.37;;
82409;SDS011;72049;51.766;6.846;2024-02-26T10:19:27;3.97;;;2.20;;
82409;SDS011;72049;51.766;6.846;2024-02-26T10:21:56;2.35;;;1.50;;
82409;SDS011;72049;51.766;6.846;2024-02-26T10:24:22;2.60;;;2.00;;
82409;SDS011;72049;51.766;6.846;2024-02-26T10:26:48;2.63;;;1.70;;
82409;SDS011;72049;51.766;6.846;2024-02-26T10:29:13;4.40;;;1.83;;
82409;SDS011;72049;51.766;6.846;2024-02-26T10:31:41;3.88;;;1.35;;
82409;SDS011;72049;51.766;6.846;2024-02-26T10:34:07;4.32;;;1.50;;
82409;SDS011;72049;51.766;6.846;2024-02-26T10:36:33;3.90;;;2.53;;
82409;SDS011;72049;51.766;6.846;2024-02-26T10:39:01;2.83;;;1.92;;
82409;SDS011;72049;51.766;6.846;2024-02-26T10:41:26;4.35;;;2.45;;
82409;SDS011;72049;51.766;6.846;2024-02-26T10:43:52;5.07;;;2.28;;
82409;SDS011;72049;51.766;6.846;2024-02-26T10:46:17;3.50;;;1.65;;
82409;SDS011;72049;51.766;6.846;2024-02-26T10:48:49;4.75;;;1.95;;
82409;SDS011;72049;51.766;6.846;2024-02-26T10:51:14;6.85;;;2.45;;
82409;SDS011;72049;51.766;6.846;2024-02-26T10:53:40;1.83;;;1.10;;
82409;SDS011;72049;51.766;6.846;2024-02-26T10:56:06;3.13;;;1.85;;
82409;SDS011;72049;51.766;6.846;2024-02-26T10:58:32;5.28;;;2.80;;
82409;SDS011;72049;51.766;6.846;2024-02-26T11:00:57;2.53;;;1.50;;
82409;SDS011;72049;51.766;6.846;2024-02-26T11:03:24;4.43;;;2.17;;
82409;SDS011;72049;51.766;6.846;2024-02-26T11:05:49;2.70;;;1.42;;
82409;SDS011;72049;51.766;6.846;2024-02-26T11:08:18;4.00;;;1.88;;
82409;SDS011;72049;51.766;6.846;2024-02-26T11:10:44;2.53;;;1.30;;
82409;SDS011;72049;51.766;6.846;2024-02-26T11:13:12;4.00;;;3.53;;
82409;SDS011;72049;51.766;6.846;2024-02-26T11:15:39;3.03;;;2.58;;
82409;SDS011;72049;51.766;6.846;2024-02-26T11:18:05;6.03;;;3.33;;
82409;SDS011;72049;51.766;6.846;2024-02-26T11:20:30;5.07;;;3.47;;
82409;SDS011;72049;51.766;6.846;2024-02-26T11:22:57;6.07;;;3.20;;
82409;SDS011;72049;51.766;6.846;2024-02-26T11:25:22;5.07;;;3.73;;
82409;SDS011;72049;51.766;6.846;2024-02-26T11:27:55;5.13;;;3.30;;
82409;SDS011;72049;51.766;6.846;2024-02-26T11:30:23;4.05;;;3.40;;
82409;SDS011;72049;51.766;6.846;2024-02-26T11:32:49;4.90;;;3.42;;
82409;SDS011;72049;51.766;6.846;2024-02-26T11:35:16;4.05;;;3.10;;
82409;SDS011;72049;51.766;6.846;2024-02-26T11:37:51;4.18;;;3.03;;
82409;SDS011;72049;51.766;6.846;2024-02-26T11:40:16;4.32;;;3.58;;
82409;SDS011;72049;51.766;6.846;2024-02-26T11:42:45;4.93;;;2.85;;
82409;SDS011;72049;51.766;6.846;2024-02-26T11:47:56;3.90;;;2.83;;
82409;SDS011;72049;51.766;6.846;2024-02-26T11:50:45;7.30;;;3.55;;
82409;SDS011;72049;51.766;6.846;2024-02-26T11:58:59;6.00;;;4.38;;
82409;SDS011;72049;51.766;6.846;2024-02-26T12:04:21;4.05;;;2.97;;
82409;SDS011;72049;51.766;6.846;2024-02-26T12:06:51;6.22;;;3.30;;
82409;SDS011;72049;51.766;6.846;2024-02-26T12:09:36;3.25;;;2.60;;
82409;SDS011;72049;51.766;6.846;2024-02-26T12:12:02;5.00;;;2.60;;
82409;SDS011;72049;51.766;6.846;2024-02-26T12:14:28;4.93;;;3.08;;
82409;SDS011;72049;51.766;6.846;2024-02-26T12:16:55;4.68;;;3.38;;
82409;SDS011;72049;51.766;6.846;2024-02-26T12:19:20;4.40;;;3.70;;
82409;SDS011;72049;51.766;6.846;2024-02-26T12:21:46;6.25;;;3.40;;
82409;SDS011;72049;51.766;6.846;2024-02-26T12:24:15;5.60;;;3.20;;
82409;SDS011;72049;51.766;6.846;2024-02-26T12:26:43;4.07;;;2.38;;
82409;SDS011;72049;51.766;6.846;2024-02-26T12:29:09;3.47;;;2.30;;
82409;SDS011;72049;51.766;6.846;2024-02-26T12:31:34;3.83;;;2.67;;
82409;SDS011;72049;51.766;6.846;2024-02-26T12:34:02;4.35;;;2.70;;
82409;SDS011;72049;51.766;6.846;2024-02-26T12:36:27;3.50;;;2.85;;
82409;SDS011;72049;51.766;6.846;2024-02-26T12:38:53;3.83;;;3.10;;
82409;SDS011;72049;51.766;6.846;2024-02-26T12:41:18;4.53;;;3.33;;
82409;SDS011;72049;51.766;6.846;2024-02-26T12:43:44;6.88;;;1.75;;
82409;SDS011;72049;51.766;6.846;2024-02-26T12:46:10;3.65;;;2.40;;
82409;SDS011;72049;51.766;6.846;2024-02-26T12:48:36;2.80;;;2.03;;
82409;SDS011;72049;51.766;6.846;2024-02-26T12:51:01;2.08;;;1.73;;
82409;SDS011;72049;51.766;6.846;2024-02-26T12:53:27;5.47;;;3.47;;
82409;SDS011;72049;51.766;6.846;2024-02-26T12:55:53;3.43;;;2.27;;
82409;SDS011;72049;51.766;6.846;2024-02-26T12:58:18;3.03;;;2.28;;
82409;SDS011;72049;51.766;6.846;2024-02-26T13:00:45;3.45;;;2.85;;
82409;SDS011;72049;51.766;6.846;2024-02-26T13:03:12;3.75;;;2.40;;
82409;SDS011;72049;51.766;6.846;2024-02-26T13:05:38;2.22;;;1.52;;
82409;SDS011;72049;51.766;6.846;2024-02-26T13:08:04;4.22;;;2.60;;
82409;SDS011;72049;51.766;6.846;2024-02-26T13:10:31;3.67;;;2.58;;
82409;SDS011;72049;51.766;6.846;2024-02-26T13:12:56;4.45;;;2.47;;
82409;SDS011;72049;51.766;6.846;2024-02-26T13:15:22;3.45;;;2.45;;
82409;SDS011;72049;51.766;6.846;2024-02-26T13:17:47;4.72;;;2.13;;
82409;SDS011;72049;51.766;6.846;2024-02-26T13:20:35;3.28;;;1.98;;
82409;SDS011;72049;51.766;6.846;2024-02-26T13:23:03;2.72;;;1.73;;
82409;SDS011;72049;51.766;6.846;2024-02-26T13:25:30;4.40;;;2.90;;
82409;SDS011;72049;51.766;6.846;2024-02-26T13:28:08;5.50;;;2.13;;
82409;SDS011;72049;51.766;6.846;2024-02-26T13:30:34;5.30;;;3.20;;
82409;SDS011;72049;51.766;6.846;2024-02-26T13:33:09;3.70;;;1.92;;
82409;SDS011;72049;51.766;6.846;2024-02-26T13:35:35;5.38;;;2.90;;
82409;SDS011;72049;51.766;6.846;2024-02-26T13:38:02;5.78;;;2.85;;
82409;SDS011;72049;51.766;6.846;2024-02-26T13:40:27;2.17;;;1.52;;
82409;SDS011;72049;51.766;6.846;2024-02-26T13:42:55;4.00;;;2.40;;
82409;SDS011;72049;51.766;6.846;2024-02-26T13:45:23;5.03;;;2.40;;
82409;SDS011;72049;51.766;6.846;2024-02-26T13:48:06;4.07;;;1.85;;
82409;SDS011;72049;51.766;6.846;2024-02-26T13:50:32;5.05;;;2.63;;
82409;SDS011;72049;51.766;6.846;2024-02-26T13:52:57;4.70;;;2.67;;
82409;SDS011;72049;51.766;6.846;2024-02-26T13:55:30;4.65;;;2.95;;
82409;SDS011;72049;51.766;6.846;2024-02-26T13:58:05;4.05;;;2.10;;
82409;SDS011;72049;51.766;6.846;2024-02-26T14:00:31;3.67;;;2.17;;
82409;SDS011;72049;51.766;6.846;2024-02-26T14:02:59;5.70;;;3.03;;
82409;SDS011;72049;51.766;6.846;2024-02-26T14:05:24;6.20;;;3.08;;
82409;SDS011;72049;51.766;6.846;2024-02-26T14:07:52;4.80;;;3.17;;
82409;SDS011;72049;51.766;6.846;2024-02-26T14:10:18;4.47;;;3.03;;
82409;SDS011;72049;51.766;6.846;2024-02-26T14:12:44;5.90;;;2.90;;
82409;SDS011;72049;51.766;6.846;2024-02-26T14:15:09;6.78;;;3.22;;
82409;SDS011;72049;51.766;6.846;2024-02-26T14:17:38;6.10;;;3.63;;
82409;SDS011;72049;51.766;6.846;2024-02-26T14:20:04;4.68;;;3.35;;
82409;SDS011;72049;51.766;6.846;2024-02-26T14:22:29;5.72;;;3.53;;
82409;SDS011;72049;51.766;6.846;2024-02-26T14:25:00;4.65;;;3.40;;
82409;SDS011;72049;51.766;6.846;2024-02-26T14:27:25;6.28;;;3.58;;
82409;SDS011;72049;51.766;6.846;2024-02-26T14:29:51;3.75;;;3.17;;
82409;SDS011;72049;51.766;6.846;2024-02-26T14:32:16;5.38;;;3.80;;
82409;SDS011;72049;51.766;6.846;2024-02-26T14:34:42;7.80;;;4.55;;
82409;SDS011;72049;51.766;6.846;2024-02-26T14:37:08;6.53;;;3.53;;
82409;SDS011;72049;51.766;6.846;2024-02-26T14:39:33;6.90;;;4.40;;
82409;SDS011;72049;51.766;6.846;2024-02-26T14:42:02;6.35;;;4.35;;
82409;SDS011;72049;51.766;6.846;2024-02-26T14:44:32;5.93;;;4.13;;
82409;SDS011;72049;51.766;6.846;2024-02-26T14:46:58;6.78;;;4.28;;
82409;SDS011;72049;51.766;6.846;2024-02-26T14:49:23;6.87;;;4.20;;
82409;SDS011;72049;51.766;6.846;2024-02-26T14:51:49;12.87;;;3.43;;
82409;SDS011;72049;51.766;6.846;2024-02-26T14:54:16;8.40;;;4.85;;
82409;SDS011;72049;51.766;6.846;2024-02-26T14:56:45;9.70;;;5.32;;
82409;SDS011;72049;51.766;6.846;2024-02-26T14:59:11;5.95;;;3.42;;